createdAt,value
2019-02-14T00:00:28.773Z,21.80
2019-02-14T00:03:00.269Z,21.80
2019-02-14T00:05:29.836Z,21.80
2019-02-14T00:07:59.396Z,21.80
2019-02-14T00:10:28.991Z,21.80
2019-02-14T00:12:58.537Z,21.80
2019-02-14T00:15:28.093Z,21.80
2019-02-14T00:17:57.680Z,21.80
2019-02-14T00:20:27.222Z,21.80
2019-02-14T00:22:56.776Z,21.80
2019-02-14T00:25:26.385Z,21.80
2019-02-14T00:27:55.943Z,21.80
2019-02-14T00:30:25.482Z,21.80
2019-02-14T00:32:55.057Z,21.80
2019-02-14T00:35:32.043Z,21.80
2019-02-14T00:38:01.674Z,21.70
2019-02-14T00:40:31.213Z,21.70
2019-02-14T00:43:00.759Z,21.70
2019-02-14T00:45:30.355Z,21.70
2019-02-14T00:47:59.899Z,21.70
2019-02-14T00:50:29.459Z,21.70
2019-02-14T00:52:59.044Z,21.70
2019-02-14T00:55:28.579Z,21.70
2019-02-14T00:57:58.133Z,21.70
2019-02-14T01:00:27.713Z,21.70
2019-02-14T01:02:57.378Z,21.70
2019-02-14T01:05:33.433Z,21.60
2019-02-14T01:07:59.255Z,21.70
2019-02-14T01:10:28.835Z,21.70
2019-02-14T01:12:58.400Z,21.70
2019-02-14T01:15:28.347Z,21.60
2019-02-14T01:17:58.057Z,21.70
2019-02-14T01:20:27.594Z,21.70
2019-02-14T01:22:57.155Z,21.70
2019-02-14T01:25:26.743Z,21.70
2019-02-14T01:27:56.290Z,21.60
2019-02-14T01:30:25.840Z,21.60
2019-02-14T01:32:55.416Z,21.60
2019-02-14T01:35:24.977Z,21.60
2019-02-14T01:37:54.543Z,21.60
2019-02-14T01:40:24.111Z,21.70
2019-02-14T01:42:53.659Z,21.60
2019-02-14T01:45:23.219Z,21.60
2019-02-14T01:47:52.955Z,21.60
2019-02-14T01:50:22.511Z,21.60
2019-02-14T01:52:52.067Z,21.60
2019-02-14T01:55:21.641Z,21.60
2019-02-14T01:57:51.197Z,21.60
2019-02-14T02:00:20.852Z,21.60
2019-02-14T02:02:50.430Z,21.60
2019-02-14T02:05:19.964Z,21.60
2019-02-14T02:07:49.732Z,21.60
2019-02-14T02:10:19.415Z,21.60
2019-02-14T02:12:49.173Z,21.60
2019-02-14T02:15:18.735Z,21.60
2019-02-14T02:17:48.326Z,21.60
2019-02-14T02:20:17.859Z,21.60
2019-02-14T02:22:47.430Z,21.60
2019-02-14T02:25:17.010Z,21.50
2019-02-14T02:27:46.556Z,21.60
2019-02-14T02:30:16.118Z,21.60
2019-02-14T02:32:45.738Z,21.60
2019-02-14T02:35:15.311Z,21.50
2019-02-14T02:37:44.840Z,21.50
2019-02-14T02:40:14.544Z,21.50
2019-02-14T02:42:44.132Z,21.50
2019-02-14T02:45:13.692Z,21.50
2019-02-14T02:47:43.267Z,21.50
2019-02-14T02:50:13.006Z,21.50
2019-02-14T02:52:42.567Z,21.50
2019-02-14T02:55:12.355Z,21.50
2019-02-14T02:57:41.895Z,21.50
2019-02-14T03:00:14.436Z,21.50
2019-02-14T03:02:43.968Z,21.50
2019-02-14T03:05:15.254Z,21.50
2019-02-14T03:07:44.936Z,21.50
2019-02-14T03:10:14.477Z,21.50
2019-02-14T03:12:44.168Z,21.50
2019-02-14T03:15:14.608Z,21.50
2019-02-14T03:17:44.263Z,21.50
2019-02-14T03:20:13.832Z,21.40
2019-02-14T03:22:44.372Z,21.50
2019-02-14T03:25:19.203Z,21.40
2019-02-14T03:27:48.752Z,21.40
2019-02-14T03:30:18.299Z,21.50
2019-02-14T03:32:47.913Z,21.50
2019-02-14T03:35:17.442Z,21.40
2019-02-14T03:37:46.983Z,21.40
2019-02-14T03:40:17.550Z,21.40
2019-02-14T03:42:47.278Z,21.40
2019-02-14T03:45:21.461Z,21.40
2019-02-14T03:47:51.001Z,21.50
2019-02-14T03:50:20.550Z,21.40
2019-02-14T03:52:51.144Z,21.40
2019-02-14T03:55:20.676Z,21.40
2019-02-14T03:57:50.336Z,21.40
2019-02-14T04:00:19.917Z,21.40
2019-02-14T04:02:49.800Z,21.40
2019-02-14T04:05:19.346Z,21.40
2019-02-14T04:07:48.924Z,21.40
2019-02-14T04:10:18.460Z,21.40
2019-02-14T04:12:48.016Z,21.40
2019-02-14T04:15:18.593Z,21.40
2019-02-14T04:17:48.134Z,21.40
2019-02-14T04:20:17.687Z,21.40
2019-02-14T04:22:47.287Z,21.40
2019-02-14T04:25:16.821Z,21.40
2019-02-14T04:27:46.376Z,21.40
2019-02-14T04:30:15.961Z,21.40
2019-02-14T04:32:45.631Z,21.40
2019-02-14T04:35:15.182Z,21.40
2019-02-14T04:37:44.772Z,21.40
2019-02-14T04:40:14.350Z,21.40
2019-02-14T04:42:43.911Z,21.40
2019-02-14T04:45:13.820Z,21.40
2019-02-14T04:47:43.782Z,21.30
2019-02-14T04:50:13.298Z,21.30
2019-02-14T04:52:42.874Z,21.30
2019-02-14T04:55:12.413Z,21.30
2019-02-14T04:57:41.972Z,21.30
2019-02-14T05:00:13.905Z,21.30
2019-02-14T05:02:43.381Z,21.40
2019-02-14T05:05:12.942Z,21.30
2019-02-14T05:07:42.503Z,21.30
2019-02-14T05:10:12.361Z,21.40
2019-02-14T05:12:41.976Z,21.30
2019-02-14T05:15:11.507Z,21.30
2019-02-14T05:17:42.104Z,21.30
2019-02-14T05:20:12.547Z,21.40
2019-02-14T05:22:42.088Z,21.30
2019-02-14T05:25:11.650Z,21.30
2019-02-14T05:27:41.231Z,21.40
2019-02-14T05:30:18.035Z,21.40
2019-02-14T05:32:47.612Z,21.30
2019-02-14T05:35:17.147Z,21.40
2019-02-14T05:37:46.908Z,21.30
2019-02-14T05:40:16.733Z,21.30
2019-02-14T05:42:46.284Z,21.40
2019-02-14T05:45:15.827Z,21.40
2019-02-14T05:47:45.394Z,21.40
2019-02-14T05:50:15.144Z,21.40
2019-02-14T05:52:45.695Z,21.30
2019-02-14T05:55:15.269Z,21.30
2019-02-14T05:57:44.811Z,21.40
2019-02-14T06:00:17.324Z,21.30
2019-02-14T06:02:46.917Z,21.40
2019-02-14T06:05:16.826Z,21.40
2019-02-14T06:07:46.376Z,21.40
2019-02-14T06:10:15.953Z,21.40
2019-02-14T06:12:45.475Z,21.40
2019-02-14T06:15:15.331Z,21.40
2019-02-14T06:17:44.907Z,21.40
2019-02-14T06:20:14.444Z,21.40
2019-02-14T06:22:44.894Z,21.40
2019-02-14T06:25:14.502Z,21.40
2019-02-14T06:27:44.125Z,21.40
2019-02-14T06:30:17.140Z,21.40
2019-02-14T06:32:46.675Z,21.50
2019-02-14T06:35:16.242Z,21.50
2019-02-14T06:37:45.823Z,21.50
2019-02-14T06:40:15.393Z,21.50
2019-02-14T06:42:44.967Z,21.60
2019-02-14T06:45:16.321Z,21.60
2019-02-14T06:47:45.859Z,21.60
2019-02-14T06:50:15.695Z,21.70
2019-02-14T06:52:45.267Z,21.70
2019-02-14T06:55:14.984Z,21.80
2019-02-14T06:57:44.591Z,21.80
2019-02-14T07:00:16.728Z,21.80
2019-02-14T07:02:46.266Z,21.90
2019-02-14T07:05:15.839Z,21.90
2019-02-14T07:07:45.453Z,22.00
2019-02-14T07:10:15.091Z,22.00
2019-02-14T07:12:44.694Z,22.00
2019-02-14T07:15:14.968Z,22.00
2019-02-14T07:17:44.600Z,22.00
2019-02-14T07:20:16.841Z,22.10
2019-02-14T07:22:46.399Z,22.10
2019-02-14T07:25:15.967Z,22.10
2019-02-14T07:27:46.359Z,22.20
2019-02-14T07:30:24.246Z,22.20
2019-02-14T07:32:53.824Z,22.20
2019-02-14T07:35:23.699Z,22.20
2019-02-14T07:37:53.266Z,22.20
2019-02-14T07:40:22.838Z,22.30
2019-02-14T07:42:52.382Z,22.40
2019-02-14T07:45:22.166Z,22.40
2019-02-14T07:47:51.815Z,22.50
2019-02-14T07:50:21.338Z,22.60
2019-02-14T07:52:50.881Z,22.70
2019-02-14T07:55:21.475Z,22.90
2019-02-14T07:57:51.040Z,23.00
2019-02-14T08:00:20.619Z,23.00
2019-02-14T08:02:50.189Z,23.00
2019-02-14T08:05:19.723Z,23.10
2019-02-14T08:07:49.267Z,23.10
2019-02-14T08:10:19.385Z,23.10
2019-02-14T08:12:48.920Z,23.00
2019-02-14T08:15:18.471Z,23.00
2019-02-14T08:17:48.039Z,23.00
2019-02-14T08:20:18.987Z,23.00
2019-02-14T08:22:48.549Z,23.00
2019-02-14T08:25:18.090Z,23.00
2019-02-14T08:27:47.966Z,23.10
2019-02-14T08:30:21.140Z,23.10
2019-02-14T08:32:50.730Z,23.10
2019-02-14T08:35:20.276Z,23.10
2019-02-14T08:37:50.217Z,23.00
2019-02-14T08:40:24.879Z,23.10
2019-02-14T08:42:54.574Z,23.10
2019-02-14T08:45:24.293Z,23.20
2019-02-14T08:47:53.851Z,23.30
2019-02-14T08:50:23.457Z,23.40
2019-02-14T08:52:52.992Z,23.50
2019-02-14T08:55:22.550Z,23.60
2019-02-14T08:57:53.003Z,23.70
2019-02-14T09:00:22.552Z,23.80
2019-02-14T09:02:52.083Z,23.70
2019-02-14T09:05:21.660Z,23.70
2019-02-14T09:07:54.825Z,23.60
2019-02-14T09:10:22.382Z,23.70
2019-02-14T09:12:52.072Z,23.70
2019-02-14T09:15:21.987Z,23.70
2019-02-14T09:17:52.671Z,23.70
2019-02-14T09:20:22.521Z,23.80
2019-02-14T09:22:52.075Z,24.20
2019-02-14T09:25:21.648Z,24.50
2019-02-14T09:27:51.188Z,24.60
2019-02-14T09:30:20.837Z,24.60
2019-02-14T09:32:51.261Z,24.50
2019-02-14T09:35:21.103Z,24.40
2019-02-14T09:37:51.664Z,24.40
2019-02-14T09:40:21.253Z,24.40
2019-02-14T09:42:50.811Z,24.40
2019-02-14T09:45:20.422Z,24.60
2019-02-14T09:47:50.878Z,24.60
2019-02-14T09:50:20.405Z,24.50
2019-02-14T09:52:49.967Z,24.50
2019-02-14T09:55:19.931Z,24.40
2019-02-14T09:57:49.467Z,24.30
2019-02-14T10:00:21.284Z,24.20
2019-02-14T10:02:51.716Z,24.20
2019-02-14T10:05:21.350Z,24.10
2019-02-14T10:07:50.916Z,24.10
2019-02-14T10:10:21.995Z,24.30
2019-02-14T10:12:51.537Z,24.40
2019-02-14T10:15:21.148Z,24.40
2019-02-14T10:17:50.664Z,24.30
2019-02-14T10:20:20.228Z,24.20
2019-02-14T10:22:49.780Z,24.10
2019-02-14T10:25:19.369Z,24.00
2019-02-14T10:27:48.922Z,23.80
2019-02-14T10:30:24.725Z,23.70
2019-02-14T10:32:56.072Z,23.60
2019-02-14T10:35:25.647Z,23.50
2019-02-14T10:37:55.203Z,23.40
2019-02-14T10:40:24.759Z,23.30
2019-02-14T10:42:54.323Z,23.20
2019-02-14T10:45:23.968Z,23.30
2019-02-14T10:47:53.836Z,23.20
2019-02-14T10:50:24.357Z,23.20
2019-02-14T10:52:53.918Z,23.30
2019-02-14T10:55:23.471Z,23.30
2019-02-14T10:57:53.060Z,23.30
2019-02-14T11:00:26.481Z,23.30
2019-02-14T11:02:56.064Z,23.30
2019-02-14T11:05:26.734Z,23.30
2019-02-14T11:07:56.644Z,23.30
2019-02-14T11:10:45.928Z,23.20
2019-02-14T11:13:15.485Z,23.10
2019-02-14T11:15:45.042Z,23.10
2019-02-14T11:18:14.678Z,23.00
2019-02-14T11:20:44.229Z,23.00
2019-02-14T11:23:14.056Z,23.00
2019-02-14T11:25:43.671Z,22.90
2019-02-14T11:28:13.168Z,23.00
2019-02-14T11:30:42.735Z,23.10
2019-02-14T11:33:12.372Z,23.20
2019-02-14T11:35:42.285Z,23.20
2019-02-14T11:38:11.846Z,23.30
2019-02-14T11:40:41.436Z,23.30
2019-02-14T11:43:15.911Z,23.30
2019-02-14T11:45:45.670Z,23.30
2019-02-14T11:48:16.100Z,23.30
2019-02-14T11:50:45.643Z,23.20
2019-02-14T11:53:15.445Z,23.20
2019-02-14T11:55:44.987Z,23.20
2019-02-14T11:58:14.625Z,23.10
2019-02-14T12:00:44.207Z,23.10
2019-02-14T12:03:13.760Z,23.10
2019-02-14T12:05:43.371Z,23.10
2019-02-14T12:08:12.951Z,23.00
2019-02-14T12:10:42.492Z,23.00
2019-02-14T12:13:12.052Z,22.90
2019-02-14T12:15:41.656Z,23.00
2019-02-14T12:18:11.212Z,23.00
2019-02-14T12:20:40.787Z,23.10
2019-02-14T12:23:10.360Z,23.10
2019-02-14T12:25:39.903Z,23.10
2019-02-14T12:28:09.476Z,23.10
2019-02-14T12:30:39.043Z,23.10
2019-02-14T12:33:08.588Z,23.20
2019-02-14T12:35:38.133Z,23.20
2019-02-14T12:38:07.764Z,23.20
2019-02-14T12:40:37.321Z,23.30
2019-02-14T12:43:08.003Z,23.40
2019-02-14T12:45:37.572Z,23.40
2019-02-14T12:48:07.106Z,23.40
2019-02-14T12:50:36.660Z,23.40
2019-02-14T12:53:06.344Z,23.40
2019-02-14T12:55:41.484Z,23.40
2019-02-14T12:58:11.267Z,23.40
2019-02-14T13:00:41.725Z,23.40
2019-02-14T13:03:11.301Z,23.30
2019-02-14T13:05:40.880Z,23.30
2019-02-14T13:08:10.424Z,23.30
2019-02-14T13:10:40.021Z,23.30
2019-02-14T13:13:09.599Z,23.20
2019-02-14T13:15:39.157Z,23.20
2019-02-14T13:18:08.723Z,23.10
2019-02-14T13:20:38.444Z,23.10
2019-02-14T13:23:07.995Z,23.10
2019-02-14T13:25:37.548Z,23.00
2019-02-14T13:28:07.122Z,23.00
2019-02-14T13:30:36.805Z,23.00
2019-02-14T13:33:06.390Z,23.00
2019-02-14T13:35:35.975Z,23.00
2019-02-14T13:38:05.581Z,23.00
2019-02-14T13:40:35.085Z,23.00
2019-02-14T13:43:05.634Z,23.00
2019-02-14T13:45:35.180Z,23.00
2019-02-14T13:48:04.746Z,23.00
2019-02-14T13:50:34.322Z,23.00
2019-02-14T13:53:03.902Z,23.00
2019-02-14T13:55:33.474Z,23.00
2019-02-14T13:58:03.113Z,23.00
2019-02-14T14:00:32.653Z,23.00
2019-02-14T14:03:02.221Z,23.00
2019-02-14T14:05:31.820Z,23.00
2019-02-14T14:08:01.396Z,23.00
2019-02-14T14:10:30.941Z,23.00
2019-02-14T14:13:00.558Z,23.00
2019-02-14T14:15:30.222Z,22.90
2019-02-14T14:17:59.766Z,23.00
2019-02-14T14:20:29.339Z,22.90
2019-02-14T14:22:59.984Z,22.90
2019-02-14T14:25:29.528Z,22.90
2019-02-14T14:27:59.916Z,22.90
2019-02-14T14:30:29.468Z,22.90
2019-02-14T14:32:59.010Z,22.90
2019-02-14T14:35:28.582Z,22.90
2019-02-14T14:37:58.123Z,22.90
2019-02-14T14:40:27.660Z,22.90
2019-02-14T14:43:01.565Z,22.90
2019-02-14T14:45:49.186Z,22.80
2019-02-14T14:48:20.070Z,22.80
2019-02-14T14:50:49.720Z,22.80
2019-02-14T14:53:19.396Z,22.80
2019-02-14T14:55:48.991Z,22.80
2019-02-14T14:58:18.920Z,22.80
2019-02-14T15:00:48.804Z,22.80
2019-02-14T15:03:18.425Z,22.80
2019-02-14T15:05:47.960Z,22.80
2019-02-14T15:08:17.905Z,22.80
2019-02-14T15:10:47.488Z,22.80
2019-02-14T15:13:17.037Z,22.80
2019-02-14T15:15:46.596Z,22.80
2019-02-14T15:18:16.180Z,22.80
2019-02-14T15:20:47.404Z,22.70
2019-02-14T15:23:16.994Z,22.70
2019-02-14T15:25:46.538Z,22.70
2019-02-14T15:28:16.101Z,22.70
2019-02-14T15:30:45.759Z,22.70
2019-02-14T15:33:15.324Z,22.70
2019-02-14T15:35:44.856Z,22.70
2019-02-14T15:38:14.431Z,22.70
2019-02-14T15:40:43.981Z,22.70
2019-02-14T15:43:13.666Z,22.70
2019-02-14T15:45:43.235Z,22.60
2019-02-14T15:48:12.788Z,22.70
2019-02-14T15:50:42.339Z,22.70
2019-02-14T15:53:12.962Z,22.60
2019-02-14T15:55:43.838Z,22.70
2019-02-14T15:58:13.593Z,22.70
2019-02-14T16:00:43.134Z,22.70
2019-02-14T16:03:14.648Z,22.70
2019-02-14T16:05:43.914Z,22.70
2019-02-14T16:08:13.471Z,22.70
2019-02-14T16:10:43.171Z,22.60
2019-02-14T16:13:12.754Z,22.70
2019-02-14T16:15:42.320Z,22.60
2019-02-14T16:18:11.866Z,22.60
2019-02-14T16:20:42.493Z,22.70
2019-02-14T16:23:12.614Z,22.60
2019-02-14T16:25:42.211Z,22.60
2019-02-14T16:28:13.704Z,22.70
2019-02-14T16:30:45.285Z,22.70
2019-02-14T16:33:14.876Z,22.70
2019-02-14T16:35:44.415Z,22.70
2019-02-14T16:38:14.151Z,22.70
2019-02-14T16:40:45.835Z,22.60
2019-02-14T16:43:15.388Z,22.70
2019-02-14T16:45:44.926Z,22.60
2019-02-14T16:48:16.329Z,22.60
2019-02-14T16:50:46.046Z,22.70
2019-02-14T16:53:15.712Z,22.60
2019-02-14T16:55:45.430Z,22.60
2019-02-14T16:58:14.978Z,22.50
2019-02-14T17:00:44.527Z,22.50
2019-02-14T17:03:14.455Z,22.40
2019-02-14T17:05:44.012Z,22.40
2019-02-14T17:08:13.587Z,22.40
2019-02-14T17:10:43.472Z,22.30
2019-02-14T17:13:13.015Z,22.30
2019-02-14T17:15:42.566Z,22.30
2019-02-14T17:18:12.153Z,22.40
2019-02-14T17:20:41.708Z,22.30
2019-02-14T17:23:11.274Z,22.30
2019-02-14T17:25:40.886Z,22.30
2019-02-14T17:28:12.048Z,22.30
2019-02-14T17:30:41.663Z,22.20
2019-02-14T17:33:11.282Z,22.20
2019-02-14T17:35:40.844Z,22.20
2019-02-14T17:38:10.422Z,22.20
2019-02-14T17:40:46.033Z,22.20
2019-02-14T17:43:11.547Z,22.20
2019-02-14T17:45:41.117Z,22.20
2019-02-14T17:48:10.676Z,22.20
2019-02-14T17:50:40.679Z,22.20
2019-02-14T17:53:11.636Z,22.10
2019-02-14T17:55:41.199Z,22.20
2019-02-14T17:58:11.056Z,22.10
2019-02-14T18:00:41.867Z,22.20
2019-02-14T18:03:11.444Z,22.10
2019-02-14T18:05:41.288Z,22.10
2019-02-14T18:08:11.341Z,22.10
2019-02-14T18:10:40.986Z,22.10
2019-02-14T18:13:10.537Z,22.10
2019-02-14T18:15:40.099Z,22.10
2019-02-14T18:18:09.695Z,22.00
2019-02-14T18:20:39.241Z,22.10
2019-02-14T18:23:09.183Z,22.10
2019-02-14T18:25:40.332Z,22.10
2019-02-14T18:28:09.891Z,22.10
2019-02-14T18:30:39.964Z,22.00
2019-02-14T18:33:10.655Z,22.00
2019-02-14T18:35:40.197Z,22.10
2019-02-14T18:38:09.765Z,22.00
2019-02-14T18:40:39.723Z,22.00
2019-02-14T18:43:09.258Z,22.00
2019-02-14T18:45:39.134Z,22.10
2019-02-14T18:48:08.709Z,22.00
2019-02-14T18:50:38.276Z,22.00
2019-02-14T18:53:07.915Z,22.00
2019-02-14T18:55:37.535Z,22.00
2019-02-14T18:58:07.103Z,22.00
2019-02-14T19:00:37.548Z,22.00
2019-02-14T19:03:07.240Z,21.90
2019-02-14T19:05:36.785Z,21.90
2019-02-14T19:08:06.351Z,21.90
2019-02-14T19:10:35.955Z,21.90
2019-02-14T19:13:05.499Z,21.90
2019-02-14T19:15:35.065Z,21.90
2019-02-14T19:18:04.684Z,21.90
2019-02-14T19:20:34.330Z,21.90
2019-02-14T19:23:03.887Z,21.90
2019-02-14T19:25:33.518Z,21.90
2019-02-14T19:28:03.092Z,21.90
2019-02-14T19:30:32.621Z,21.90
2019-02-14T19:33:02.205Z,21.90
2019-02-14T19:35:31.751Z,21.90
2019-02-14T19:38:01.329Z,21.90
2019-02-14T19:40:30.933Z,21.90
2019-02-14T19:43:00.508Z,21.90
2019-02-14T19:45:36.228Z,21.90
2019-02-14T19:48:01.288Z,21.80
2019-02-14T19:50:31.000Z,21.90
2019-02-14T19:53:00.571Z,21.80
2019-02-14T19:55:30.272Z,21.90
2019-02-14T19:58:01.855Z,21.90
2019-02-14T20:00:31.634Z,21.90
2019-02-14T20:03:01.287Z,21.90
2019-02-14T20:05:30.850Z,21.90
2019-02-14T20:08:00.573Z,22.00
2019-02-14T20:10:30.942Z,21.90
2019-02-14T20:13:01.924Z,22.00
2019-02-14T20:15:37.236Z,22.00
2019-02-14T20:18:02.864Z,21.90
2019-02-14T20:20:32.539Z,22.00
2019-02-14T20:23:02.106Z,21.90
2019-02-14T20:25:31.852Z,21.90
2019-02-14T20:28:01.559Z,22.00
2019-02-14T20:30:31.103Z,22.00
2019-02-14T20:33:04.674Z,21.90
2019-02-14T20:35:31.865Z,21.90
2019-02-14T20:38:01.753Z,21.90
2019-02-14T20:40:32.122Z,21.90
2019-02-14T20:43:01.916Z,21.90
2019-02-14T20:45:31.864Z,21.90
2019-02-14T20:48:01.448Z,21.90
2019-02-14T20:50:30.995Z,21.90
2019-02-14T20:53:00.556Z,21.90
2019-02-14T20:55:30.501Z,21.90
2019-02-14T20:58:00.053Z,21.90
2019-02-14T21:00:31.575Z,21.90
2019-02-14T21:03:01.086Z,21.80
2019-02-14T21:05:30.971Z,21.80
2019-02-14T21:08:01.557Z,21.80
2019-02-14T21:10:32.042Z,21.80
2019-02-14T21:13:01.676Z,21.80
2019-02-14T21:15:31.467Z,21.80
2019-02-14T21:18:01.030Z,21.80
2019-02-14T21:20:30.589Z,21.80
2019-02-14T21:23:00.190Z,21.80
2019-02-14T21:25:29.731Z,21.80
2019-02-14T21:27:59.297Z,21.80
2019-02-14T21:30:33.660Z,21.80
2019-02-14T21:33:01.082Z,21.80
2019-02-14T21:35:30.689Z,21.80
2019-02-14T21:38:00.263Z,21.70
2019-02-14T21:40:30.930Z,21.70
2019-02-14T21:43:00.496Z,21.70
2019-02-14T21:45:30.055Z,21.70
2019-02-14T21:47:59.610Z,21.70
2019-02-14T21:50:29.204Z,21.70
2019-02-14T21:52:58.772Z,21.70
2019-02-14T21:55:28.333Z,21.70
2019-02-14T21:57:58.021Z,21.70
2019-02-14T22:00:29.030Z,21.70
2019-02-14T22:02:58.655Z,21.60
2019-02-14T22:05:28.291Z,21.70
2019-02-14T22:07:58.036Z,21.70
2019-02-14T22:10:27.594Z,21.70
2019-02-14T22:12:57.193Z,21.60
2019-02-14T22:15:29.883Z,21.60
2019-02-14T22:17:59.494Z,21.60
2019-02-14T22:20:30.014Z,21.70
2019-02-14T22:22:59.567Z,21.60
2019-02-14T22:25:29.162Z,21.60
2019-02-14T22:27:58.981Z,21.60
2019-02-14T22:30:28.553Z,21.60
2019-02-14T22:32:58.226Z,21.60
2019-02-14T22:35:27.771Z,21.60
2019-02-14T22:37:57.336Z,21.60
2019-02-14T22:40:28.020Z,21.60
2019-02-14T22:42:57.576Z,21.60
2019-02-14T22:45:27.132Z,21.60
2019-02-14T22:47:56.999Z,21.60
2019-02-14T22:50:26.559Z,21.60
2019-02-14T22:52:56.118Z,21.60
2019-02-14T22:55:25.704Z,21.60
2019-02-14T22:57:56.804Z,21.60
2019-02-14T23:00:30.261Z,21.60
2019-02-14T23:03:01.372Z,21.60
2019-02-14T23:05:30.977Z,21.60
2019-02-14T23:08:00.544Z,21.60
2019-02-14T23:10:30.121Z,21.50
2019-02-14T23:12:59.798Z,21.50
2019-02-14T23:15:29.256Z,21.50
2019-02-14T23:17:58.938Z,21.50
2019-02-14T23:20:28.523Z,21.50
2019-02-14T23:25:45.344Z,21.50
2019-02-14T23:28:15.030Z,21.50
2019-02-14T23:30:44.763Z,21.50
2019-02-14T23:33:14.456Z,21.50
2019-02-14T23:35:44.158Z,21.50
2019-02-14T23:38:13.789Z,21.50
2019-02-14T23:40:44.814Z,21.50
2019-02-14T23:43:14.952Z,21.50
2019-02-14T23:45:44.537Z,21.50
2019-02-14T23:48:14.169Z,21.50
2019-02-14T23:50:43.850Z,21.50
2019-02-14T23:53:13.589Z,21.50
2019-02-14T23:55:43.294Z,21.50
2019-02-14T23:58:12.904Z,21.50
